Time;durP1;ratioP1;P1;durP2;ratioP2;P2;SDS_P1;SDS_P2;PMS_P1;PMS_P2;Temp;Humidity;BMP_temperature;BMP_pressure;BME280_temperature;BME280_humidity;BME280_pressure;Samples;Min_cycle;Max_cycle;Signal;HPM_P1;HPM_P2
2020/12/25 00:01:21;;;;;;;0.60;0.10;;;3.60;99.90;;;;;;5052777;28;20854;-56
2020/12/25 00:03:48;;;;;;;0.40;0.20;;;3.70;99.90;;;;;;5052547;28;20425;-56
2020/12/25 00:06:15;;;;;;;0.30;0.10;;;3.70;99.90;;;;;;5053016;28;20461;-54
2020/12/25 00:08:42;;;;;;;0.40;0.20;;;3.50;99.90;;;;;;5053642;28;20409;-56
2020/12/25 00:11:09;;;;;;;0.40;0.20;;;3.50;99.90;;;;;;5054114;28;20768;-57
2020/12/25 00:13:36;;;;;;;0.40;0.20;;;3.40;99.90;;;;;;5054182;28;20425;-55
2020/12/25 00:16:03;;;;;;;0.40;0.20;;;3.50;99.90;;;;;;5051772;28;20747;-56
2020/12/25 00:18:30;;;;;;;0.40;0.20;;;3.60;99.90;;;;;;5053303;28;20421;-57
2020/12/25 00:20:57;;;;;;;0.30;0.10;;;3.60;99.90;;;;;;5052176;28;20437;-57
2020/12/25 00:23:24;;;;;;;0.30;0.20;;;3.70;99.90;;;;;;5051012;28;20422;-57
2020/12/25 00:25:51;;;;;;;0.30;0.10;;;3.70;99.90;;;;;;5052370;28;20436;-57
2020/12/25 00:28:18;;;;;;;0.30;0.10;;;3.80;99.90;;;;;;5052570;28;20421;-57
2020/12/25 00:30:45;;;;;;;0.40;0.20;;;3.70;99.90;;;;;;5052532;28;20436;-55
2020/12/25 00:33:12;;;;;;;0.40;0.10;;;3.90;99.90;;;;;;5053515;28;20741;-56
2020/12/25 00:35:42;;;;;;;0.30;0.10;;;3.90;99.90;;;;;;5052240;28;20733;-56
2020/12/25 00:38:09;;;;;;;0.40;0.10;;;3.80;99.90;;;;;;5052616;28;20507;-57
2020/12/25 00:40:43;;;;;;;0.30;0.10;;;3.80;99.90;;;;;;5052437;28;20425;-57
2020/12/25 00:43:10;;;;;;;0.30;0.10;;;3.80;99.90;;;;;;5052756;28;20433;-56
2020/12/25 00:45:37;;;;;;;0.30;0.10;;;3.90;99.90;;;;;;5052167;28;20425;-57
2020/12/25 00:48:04;;;;;;;0.30;0.10;;;3.90;99.90;;;;;;5053169;28;20492;-55
2020/12/25 00:50:31;;;;;;;0.30;0.10;;;4.10;99.90;;;;;;5055355;28;20868;-57
2020/12/25 00:52:58;;;;;;;0.40;0.15;;;3.90;99.90;;;;;;5055243;28;20725;-56
2020/12/25 00:55:24;;;;;;;0.80;0.17;;;4.00;99.90;;;;;;5055161;28;20429;-58
2020/12/25 00:57:52;;;;;;;0.30;0.10;;;4.00;99.90;;;;;;5055060;28;20432;-56
2020/12/25 01:00:19;;;;;;;0.63;0.10;;;4.10;99.90;;;;;;5054432;28;20440;-58
2020/12/25 01:02:46;;;;;;;0.30;0.10;;;4.00;99.90;;;;;;5053330;28;20895;-58
2020/12/25 01:05:13;;;;;;;0.40;0.20;;;4.00;99.90;;;;;;5052436;28;20433;-58
2020/12/25 01:07:40;;;;;;;0.30;0.20;;;4.10;99.90;;;;;;5053142;28;20421;-57
2020/12/25 01:10:07;;;;;;;0.40;0.20;;;4.10;99.90;;;;;;5052605;28;20833;-56
2020/12/25 01:12:33;;;;;;;0.40;0.20;;;3.80;99.90;;;;;;5052533;28;20425;-57
2020/12/25 01:15:01;;;;;;;0.40;0.20;;;3.80;99.90;;;;;;5052538;28;20417;-55
2020/12/25 01:17:28;;;;;;;0.50;0.20;;;3.90;99.90;;;;;;5052988;28;20825;-57
2020/12/25 01:19:55;;;;;;;0.33;0.20;;;3.90;99.90;;;;;;5052562;28;20457;-57
2020/12/25 01:22:22;;;;;;;0.40;0.20;;;3.70;99.90;;;;;;5053293;28;20413;-57
2020/12/25 01:24:49;;;;;;;0.45;0.20;;;3.80;99.90;;;;;;5052999;28;20840;-55
2020/12/25 01:27:16;;;;;;;0.50;0.20;;;3.70;99.90;;;;;;5051077;28;20417;-57
2020/12/25 01:29:42;;;;;;;0.50;0.20;;;3.70;99.90;;;;;;5052179;28;20421;-55
2020/12/25 01:32:10;;;;;;;0.50;0.20;;;3.50;99.90;;;;;;5052238;28;20429;-57
2020/12/25 01:34:37;;;;;;;0.50;0.20;;;3.40;99.90;;;;;;5052581;28;20457;-57
2020/12/25 01:37:04;;;;;;;0.43;0.20;;;3.50;99.90;;;;;;5052863;28;20495;-57
2020/12/25 01:39:31;;;;;;;0.40;0.20;;;3.50;99.90;;;;;;5053992;28;20475;-56
2020/12/25 01:41:57;;;;;;;0.50;0.20;;;3.60;99.90;;;;;;5054829;28;20702;-57
2020/12/25 01:44:25;;;;;;;0.40;0.20;;;3.70;99.90;;;;;;5052770;28;20429;-56
2020/12/25 01:46:52;;;;;;;0.45;0.20;;;3.80;99.90;;;;;;5052913;28;20425;-56
2020/12/25 01:49:20;;;;;;;0.60;0.30;;;3.90;99.90;;;;;;5052958;28;20414;-54
2020/12/25 01:51:47;;;;;;;0.30;0.20;;;4.00;99.90;;;;;;5053588;28;20433;-56
2020/12/25 01:54:14;;;;;;;0.50;0.30;;;3.80;99.90;;;;;;5053161;28;20424;-55
2020/12/25 01:56:42;;;;;;;0.60;0.30;;;3.90;99.90;;;;;;5053505;28;20443;-56
2020/12/25 01:59:10;;;;;;;0.50;0.30;;;4.00;99.90;;;;;;5054061;28;20441;-54
2020/12/25 02:01:37;;;;;;;0.60;0.40;;;4.10;99.90;;;;;;5054215;28;20466;-55
2020/12/25 02:04:04;;;;;;;0.60;0.40;;;4.20;99.90;;;;;;5054555;28;20428;-51
2020/12/25 02:06:39;;;;;;;0.80;0.30;;;4.20;99.90;;;;;;5054552;28;20733;-52
2020/12/25 02:09:07;;;;;;;0.70;0.40;;;4.20;99.90;;;;;;5053117;28;20466;-51
2020/12/25 02:11:35;;;;;;;0.52;0.30;;;4.10;99.90;;;;;;5054071;28;20436;-54
2020/12/25 02:14:02;;;;;;;0.73;0.40;;;4.00;99.90;;;;;;5051665;28;20460;-50
2020/12/25 02:16:30;;;;;;;0.80;0.40;;;3.80;99.90;;;;;;5051857;28;20737;-52
2020/12/25 02:18:57;;;;;;;0.68;0.40;;;4.10;99.90;;;;;;5054633;28;20452;-51
2020/12/25 02:21:25;;;;;;;0.68;0.35;;;4.10;99.90;;;;;;5055845;28;20821;-56
2020/12/25 02:23:52;;;;;;;0.70;0.40;;;4.00;99.90;;;;;;5056124;28;20733;-55
2020/12/25 02:26:19;;;;;;;0.98;0.40;;;4.00;99.90;;;;;;5055932;28;20437;-57
2020/12/25 02:28:45;;;;;;;0.70;0.40;;;4.10;99.90;;;;;;5057341;28;20460;-56
2020/12/25 02:31:12;;;;;;;0.90;0.40;;;4.00;99.90;;;;;;5057673;28;20440;-55
2020/12/25 02:33:39;;;;;;;0.70;0.40;;;4.00;99.90;;;;;;5057317;28;20825;-57
2020/12/25 02:36:06;;;;;;;0.60;0.40;;;4.10;99.90;;;;;;5057580;28;20865;-55
2020/12/25 02:38:34;;;;;;;1.00;0.40;;;4.20;99.90;;;;;;5058230;28;20721;-58
2020/12/25 02:41:01;;;;;;;0.70;0.50;;;4.20;99.90;;;;;;5058017;28;20429;-53
2020/12/25 02:43:27;;;;;;;0.70;0.40;;;4.20;99.90;;;;;;5058268;28;20429;-56
2020/12/25 02:45:54;;;;;;;0.80;0.40;;;4.40;99.90;;;;;;5058298;28;20864;-52
2020/12/25 02:48:21;;;;;;;0.70;0.40;;;4.40;99.90;;;;;;5057728;28;20601;-57
2020/12/25 02:50:48;;;;;;;0.77;0.50;;;4.50;99.90;;;;;;5057864;28;20528;-57
2020/12/25 02:53:15;;;;;;;0.70;0.40;;;4.50;99.90;;;;;;5057360;28;20433;-58
2020/12/25 02:55:43;;;;;;;1.20;0.40;;;4.40;99.90;;;;;;5057492;28;20433;-56
2020/12/25 02:58:09;;;;;;;0.90;0.50;;;4.30;99.90;;;;;;5057470;28;20897;-57
2020/12/25 03:00:36;;;;;;;0.77;0.50;;;4.30;99.90;;;;;;5057765;28;20425;-59
2020/12/25 03:03:03;;;;;;;0.90;0.50;;;4.30;99.90;;;;;;5057500;28;20420;-57
2020/12/25 03:05:30;;;;;;;0.80;0.50;;;4.30;99.90;;;;;;5057488;28;20737;-59
2020/12/25 03:07:57;;;;;;;0.70;0.50;;;4.40;99.90;;;;;;5057667;28;20555;-56
2020/12/25 03:10:24;;;;;;;0.60;0.40;;;4.30;99.90;;;;;;5057314;28;20436;-56
2020/12/25 03:12:52;;;;;;;0.80;0.50;;;4.30;99.90;;;;;;5057329;28;20417;-57
2020/12/25 03:15:18;;;;;;;0.80;0.50;;;4.30;99.90;;;;;;5057501;28;20425;-57
2020/12/25 03:17:45;;;;;;;0.80;0.50;;;4.30;99.90;;;;;;5056999;28;20829;-56
2020/12/25 03:20:12;;;;;;;0.90;0.50;;;4.20;99.90;;;;;;5056432;28;20456;-56
2020/12/25 03:22:39;;;;;;;1.52;0.50;;;4.30;99.90;;;;;;5056200;28;20467;-57
2020/12/25 03:25:06;;;;;;;0.73;0.50;;;4.30;99.90;;;;;;5055240;28;20459;-56
2020/12/25 03:27:33;;;;;;;1.00;0.50;;;4.20;99.90;;;;;;5054270;28;20775;-58
2020/12/25 03:30:00;;;;;;;2.50;0.50;;;4.30;99.90;;;;;;5054087;28;20820;-57
2020/12/25 03:32:27;;;;;;;1.00;0.60;;;4.20;99.90;;;;;;5055246;28;20777;-57
2020/12/25 03:34:54;;;;;;;1.00;0.40;;;4.00;99.90;;;;;;5056359;28;20425;-56
2020/12/25 03:37:21;;;;;;;0.90;0.40;;;4.00;99.90;;;;;;5056050;28;20413;-56
2020/12/25 03:39:48;;;;;;;0.90;0.40;;;4.00;99.90;;;;;;5055738;28;20528;-57
2020/12/25 03:42:14;;;;;;;1.30;0.50;;;4.20;99.90;;;;;;5055711;28;20499;-57
2020/12/25 03:44:42;;;;;;;0.60;0.40;;;4.30;99.90;;;;;;5056103;28;20421;-58
2020/12/25 03:47:10;;;;;;;1.25;0.40;;;4.40;99.90;;;;;;5056556;28;20737;-57
2020/12/25 03:49:37;;;;;;;0.80;0.43;;;4.50;99.90;;;;;;5056506;28;20426;-57
2020/12/25 03:52:04;;;;;;;0.90;0.43;;;4.50;99.90;;;;;;5055934;28;20437;-57
2020/12/25 03:54:30;;;;;;;0.90;0.50;;;4.40;99.90;;;;;;5055345;28;20422;-57
2020/12/25 03:56:57;;;;;;;2.00;0.60;;;4.30;99.90;;;;;;5055511;28;20425;-58
2020/12/25 03:59:24;;;;;;;1.10;0.50;;;4.30;99.90;;;;;;5054675;28;20841;-57
2020/12/25 04:01:51;;;;;;;1.20;0.50;;;4.30;99.90;;;;;;5055372;28;20745;-58
2020/12/25 04:04:19;;;;;;;1.00;0.50;;;4.30;99.90;;;;;;5052690;28;20425;-56
2020/12/25 04:06:45;;;;;;;1.90;0.50;;;4.40;99.90;;;;;;5051795;28;20429;-56
2020/12/25 04:09:12;;;;;;;0.80;0.50;;;4.40;99.90;;;;;;5051021;28;20541;-57
2020/12/25 04:11:39;;;;;;;1.00;0.50;;;4.40;99.90;;;;;;5051364;28;20453;-58
2020/12/25 04:14:06;;;;;;;0.90;0.50;;;4.40;99.90;;;;;;5049949;28;20425;-56
2020/12/25 04:16:33;;;;;;;0.75;0.50;;;4.30;99.90;;;;;;5051747;28;20726;-57
2020/12/25 04:19:00;;;;;;;0.70;0.40;;;4.40;99.90;;;;;;5052320;28;20440;-57
2020/12/25 04:21:27;;;;;;;1.00;0.60;;;4.40;99.90;;;;;;5052108;28;20465;-57
2020/12/25 04:23:54;;;;;;;0.80;0.45;;;4.40;99.90;;;;;;5053259;28;20413;-55
2020/12/25 04:26:21;;;;;;;0.80;0.50;;;4.40;99.90;;;;;;5053829;28;20425;-60
2020/12/25 04:28:48;;;;;;;0.82;0.50;;;4.40;99.90;;;;;;5054318;28;20440;-58
2020/12/25 04:31:15;;;;;;;1.40;0.60;;;4.30;99.90;;;;;;5053878;28;20425;-57
2020/12/25 04:33:42;;;;;;;1.00;0.50;;;4.30;99.90;;;;;;5055008;28;20421;-58
2020/12/25 04:36:08;;;;;;;0.70;0.50;;;4.20;99.90;;;;;;5055918;28;20559;-58
2020/12/25 04:38:36;;;;;;;1.20;0.40;;;4.20;99.90;;;;;;5055804;28;20429;-58
2020/12/25 04:41:06;;;;;;;0.90;0.50;;;4.30;99.90;;;;;;5054183;28;20425;-58
2020/12/25 04:43:36;;;;;;;0.80;0.40;;;4.40;99.90;;;;;;5053955;28;20426;-57
2020/12/25 04:46:03;;;;;;;1.30;0.50;;;4.40;99.90;;;;;;5052860;28;20425;-60
2020/12/25 04:48:30;;;;;;;0.73;0.40;;;4.30;99.90;;;;;;5054279;28;20725;-58
2020/12/25 04:50:57;;;;;;;0.80;0.40;;;4.20;99.90;;;;;;5054452;28;20768;-58
2020/12/25 04:53:25;;;;;;;0.90;0.50;;;4.20;99.90;;;;;;5054495;28;20417;-58
2020/12/25 04:55:53;;;;;;;0.75;0.50;;;4.10;99.90;;;;;;5054866;28;20425;-58
2020/12/25 04:58:19;;;;;;;0.90;0.50;;;4.20;99.90;;;;;;5055105;28;20413;-57
2020/12/25 05:01:02;;;;;;;0.80;0.47;;;4.30;99.90;;;;;;5054594;28;20425;-57
2020/12/25 05:03:33;;;;;;;0.70;0.40;;;4.40;99.90;;;;;;5053607;28;20421;-58
2020/12/25 05:06:04;;;;;;;1.00;0.50;;;4.30;99.90;;;;;;5053692;28;20425;-58
2020/12/25 05:08:40;;;;;;;0.80;0.47;;;4.30;99.90;;;;;;5054491;28;20783;-58
2020/12/25 05:11:08;;;;;;;0.80;0.50;;;4.30;99.90;;;;;;5054763;28;20532;-58
2020/12/25 05:13:40;;;;;;;1.10;0.40;;;4.20;99.90;;;;;;5054854;28;20417;-58
2020/12/25 05:16:06;;;;;;;1.20;0.40;;;4.30;99.90;;;;;;5054463;28;20844;-57
2020/12/25 05:18:35;;;;;;;0.80;0.50;;;4.20;99.90;;;;;;5053439;28;20472;-57
2020/12/25 05:21:08;;;;;;;0.73;0.40;;;4.00;99.90;;;;;;5052995;28;20433;-56
2020/12/25 05:23:37;;;;;;;0.80;0.50;;;4.00;99.90;;;;;;5052531;28;20409;-58
2020/12/25 05:26:06;;;;;;;0.80;0.40;;;4.00;99.90;;;;;;5052501;28;20441;-55
2020/12/25 05:28:38;;;;;;;0.85;0.50;;;4.20;99.90;;;;;;5052359;28;20418;-57
2020/12/25 05:31:05;;;;;;;1.30;0.50;;;4.20;99.90;;;;;;5052810;28;20435;-58
2020/12/25 05:33:32;;;;;;;0.93;0.50;;;4.10;99.90;;;;;;5053713;28;20418;-58
2020/12/25 05:36:02;;;;;;;0.80;0.50;;;4.10;99.90;;;;;;5054622;28;20417;-58
2020/12/25 05:38:29;;;;;;;1.27;0.50;;;4.10;99.90;;;;;;5054758;28;20424;-56
2020/12/25 05:40:56;;;;;;;1.17;0.50;;;4.20;99.90;;;;;;5054427;28;20706;-57
2020/12/25 05:43:23;;;;;;;0.80;0.50;;;4.40;99.90;;;;;;5054174;28;20413;-56
2020/12/25 05:45:51;;;;;;;0.80;0.50;;;4.40;99.90;;;;;;5054652;28;20471;-57
2020/12/25 05:48:17;;;;;;;1.20;0.50;;;4.40;99.90;;;;;;5055019;28;20817;-58
2020/12/25 05:50:45;;;;;;;0.80;0.50;;;4.50;99.90;;;;;;5053944;28;20764;-57
2020/12/25 05:53:12;;;;;;;1.00;0.50;;;4.50;99.90;;;;;;5054901;28;20821;-57
2020/12/25 05:55:39;;;;;;;0.90;0.60;;;4.60;99.90;;;;;;5054689;28;20491;-57
2020/12/25 05:58:06;;;;;;;1.17;0.50;;;4.40;99.90;;;;;;5054938;28;20825;-57
2020/12/25 06:00:34;;;;;;;1.10;0.60;;;4.30;99.90;;;;;;5034432;28;20435;-58
2020/12/25 06:03:01;;;;;;;0.90;0.50;;;4.30;99.90;;;;;;5034923;28;20486;-56
2020/12/25 06:05:29;;;;;;;1.02;0.50;;;4.30;99.90;;;;;;5034501;28;20434;-57
2020/12/25 06:07:57;;;;;;;0.90;0.50;;;4.40;99.90;;;;;;5034549;28;20795;-57
2020/12/25 06:10:25;;;;;;;1.00;0.57;;;4.50;99.90;;;;;;5034681;28;20423;-58
2020/12/25 06:12:54;;;;;;;1.10;0.70;;;4.50;99.90;;;;;;5034825;28;20426;-57
2020/12/25 06:15:26;;;;;;;1.10;0.70;;;4.50;99.90;;;;;;5034281;28;20485;-57
2020/12/25 06:18:28;;;;;;;0.93;0.60;;;4.60;99.90;;;;;;5034465;28;20426;-58
2020/12/25 06:21:04;;;;;;;1.08;0.60;;;4.50;99.90;;;;;;5031943;28;20596;-58
2020/12/25 06:23:31;;;;;;;1.00;0.60;;;4.40;99.90;;;;;;5033615;28;20431;-58
2020/12/25 06:26:05;;;;;;;1.10;0.70;;;4.50;99.90;;;;;;5033866;28;20483;-56
2020/12/25 06:28:32;;;;;;;1.55;0.63;;;4.40;99.90;;;;;;5034321;28;20423;-57
2020/12/25 06:30:59;;;;;;;1.30;0.70;;;4.50;99.90;;;;;;5034087;28;20434;-57
2020/12/25 06:33:28;;;;;;;1.80;0.70;;;4.30;99.90;;;;;;5034093;28;20553;-57
2020/12/25 06:35:59;;;;;;;1.40;0.70;;;4.10;99.90;;;;;;5033870;28;20438;-57
2020/12/25 06:38:26;;;;;;;1.40;0.75;;;4.00;99.90;;;;;;5034537;28;20831;-57
2020/12/25 06:40:57;;;;;;;1.25;0.70;;;4.10;99.90;;;;;;5033792;28;20437;-57
2020/12/25 06:43:24;;;;;;;1.27;0.70;;;4.10;99.90;;;;;;5032611;28;20418;-57
2020/12/25 06:45:52;;;;;;;1.55;0.70;;;4.30;99.90;;;;;;5032536;28;20435;-57
2020/12/25 06:48:21;;;;;;;1.00;0.60;;;4.30;99.90;;;;;;5032698;28;20500;-57
2020/12/25 06:50:53;;;;;;;1.20;0.80;;;4.40;99.90;;;;;;5032478;28;20434;-55
2020/12/25 06:53:35;;;;;;;1.30;0.77;;;4.30;99.90;;;;;;5032647;28;20451;-57
2020/12/25 06:56:23;;;;;;;1.60;0.60;;;4.20;99.90;;;;;;5032355;28;20853;-55
2020/12/25 06:58:52;;;;;;;1.70;0.70;;;4.20;99.90;;;;;;5033231;28;20519;-55
2020/12/25 07:01:37;;;;;;;1.10;0.70;;;4.20;99.90;;;;;;5053187;28;20429;-56
2020/12/25 07:04:04;;;;;;;1.40;0.70;;;4.20;99.90;;;;;;5057347;28;20429;-56
2020/12/25 07:06:32;;;;;;;1.00;0.60;;;4.10;99.90;;;;;;5057138;28;20433;-57
2020/12/25 07:09:10;;;;;;;1.20;0.70;;;4.00;99.90;;;;;;5056801;28;20413;-57
2020/12/25 07:11:37;;;;;;;1.40;0.60;;;4.00;99.90;;;;;;5055460;28;20440;-57
2020/12/25 07:14:05;;;;;;;1.20;0.50;;;3.90;99.90;;;;;;5056256;28;20820;-57
2020/12/25 07:16:32;;;;;;;1.20;0.60;;;3.90;99.90;;;;;;5056214;28;20498;-56
2020/12/25 07:18:59;;;;;;;0.95;0.60;;;3.90;99.90;;;;;;5055676;28;20433;-55
2020/12/25 07:21:28;;;;;;;0.93;0.60;;;4.00;99.90;;;;;;5056154;28;20483;-56
2020/12/25 07:23:56;;;;;;;1.05;0.60;;;4.00;99.90;;;;;;5056019;28;20733;-57
2020/12/25 07:26:24;;;;;;;0.95;0.45;;;4.00;99.90;;;;;;5056902;28;20459;-57
2020/12/25 07:28:52;;;;;;;0.80;0.50;;;3.90;99.90;;;;;;5056907;28;20409;-55
2020/12/25 07:31:21;;;;;;;1.38;0.60;;;3.80;99.90;;;;;;5057078;28;20850;-55
2020/12/25 07:33:54;;;;;;;0.90;0.60;;;3.70;99.90;;;;;;5056736;28;20507;-57
2020/12/25 07:36:21;;;;;;;0.63;0.40;;;3.60;99.90;;;;;;5056420;28;20535;-56
2020/12/25 07:38:47;;;;;;;0.70;0.40;;;3.60;99.90;;;;;;5056424;28;20718;-54
2020/12/25 07:41:15;;;;;;;0.90;0.52;;;3.80;99.90;;;;;;5056842;28;20494;-55
2020/12/25 07:43:43;;;;;;;0.73;0.50;;;4.00;99.90;;;;;;5056877;28;20413;-56
2020/12/25 07:46:13;;;;;;;0.80;0.50;;;4.10;99.90;;;;;;5056334;28;20436;-57
2020/12/25 07:48:42;;;;;;;0.70;0.50;;;4.00;99.90;;;;;;5055985;28;20432;-56
2020/12/25 07:51:09;;;;;;;1.00;0.50;;;4.10;99.90;;;;;;5055047;28;20700;-57
2020/12/25 07:53:37;;;;;;;1.50;0.45;;;4.00;99.90;;;;;;5055659;28;20733;-56
2020/12/25 07:56:07;;;;;;;0.80;0.50;;;4.00;99.90;;;;;;5056597;28;20622;-57
2020/12/25 07:58:39;;;;;;;1.00;0.50;;;3.90;99.90;;;;;;5056294;28;20498;-57
2020/12/25 08:01:08;;;;;;;0.80;0.50;;;4.00;99.90;;;;;;5056127;28;20433;-56
2020/12/25 08:03:36;;;;;;;0.75;0.50;;;4.10;99.90;;;;;;5055362;28;20429;-56
2020/12/25 08:06:03;;;;;;;0.90;0.40;;;4.10;99.90;;;;;;5055717;28;20437;-54
2020/12/25 08:08:29;;;;;;;0.70;0.40;;;4.20;99.90;;;;;;5056210;28;20418;-57
2020/12/25 08:10:59;;;;;;;1.00;0.40;;;4.10;99.90;;;;;;5055477;28;20431;-57
2020/12/25 08:13:26;;;;;;;0.80;0.50;;;4.30;99.90;;;;;;5054844;28;20417;-57
2020/12/25 08:15:54;;;;;;;1.08;0.50;;;4.00;99.90;;;;;;5053983;28;20482;-56
2020/12/25 08:18:21;;;;;;;0.80;0.50;;;4.00;99.90;;;;;;5054367;28;20421;-57
2020/12/25 08:20:54;;;;;;;0.90;0.50;;;4.00;99.90;;;;;;5054603;28;20440;-58
2020/12/25 08:23:21;;;;;;;1.25;0.60;;;4.10;99.90;;;;;;5056289;28;20421;-58
2020/12/25 08:25:53;;;;;;;1.10;0.60;;;3.90;99.90;;;;;;5055647;28;20467;-59
2020/12/25 08:28:22;;;;;;;1.40;0.73;;;3.70;99.90;;;;;;5055682;28;20821;-58
2020/12/25 08:30:49;;;;;;;1.13;0.70;;;3.60;99.90;;;;;;5055102;28;20432;-57
2020/12/25 08:33:26;;;;;;;2.03;0.90;;;3.60;99.90;;;;;;5053827;28;20413;-56
2020/12/25 08:35:53;;;;;;;1.30;0.80;;;3.70;99.90;;;;;;5055440;28;20829;-58
2020/12/25 08:38:21;;;;;;;1.40;0.73;;;4.00;99.90;;;;;;5055325;28;20825;-58
2020/12/25 08:40:48;;;;;;;1.40;0.80;;;4.00;99.90;;;;;;5055331;28;20473;-57
2020/12/25 08:43:17;;;;;;;1.60;0.90;;;4.10;99.90;;;;;;5055349;28;20432;-58
2020/12/25 08:46:00;;;;;;;1.97;0.90;;;4.00;99.90;;;;;;5055562;28;20451;-57
2020/12/25 08:48:28;;;;;;;1.60;0.90;;;4.10;99.90;;;;;;5053311;28;20490;-57
2020/12/25 08:51:09;;;;;;;1.67;0.90;;;4.10;99.90;;;;;;5055414;28;20756;-57
2020/12/25 08:53:36;;;;;;;1.73;1.00;;;4.20;99.90;;;;;;5054887;28;20429;-57
2020/12/25 08:56:17;;;;;;;2.23;1.00;;;4.20;99.90;;;;;;5055043;28;20486;-58
2020/12/25 08:58:55;;;;;;;3.10;0.93;;;4.30;99.90;;;;;;5054610;28;20421;-60
2020/12/25 09:01:23;;;;;;;2.20;1.00;;;4.30;99.90;;;;;;5054477;28;20716;-56
2020/12/25 09:03:51;;;;;;;3.20;0.90;;;4.10;99.90;;;;;;5054264;28;20417;-56
2020/12/25 09:06:18;;;;;;;1.80;0.95;;;4.30;99.90;;;;;;5053721;28;20429;-57
2020/12/25 09:08:45;;;;;;;1.90;1.02;;;4.40;99.90;;;;;;5054470;28;20413;-57
2020/12/25 09:11:14;;;;;;;2.70;1.00;;;4.60;99.90;;;;;;5054880;28;20429;-57
2020/12/25 09:13:41;;;;;;;2.53;1.00;;;4.70;99.90;;;;;;5054206;28;20447;-58
2020/12/25 09:16:08;;;;;;;2.00;1.00;;;4.70;99.90;;;;;;5055001;28;20706;-56
2020/12/25 09:18:36;;;;;;;2.42;1.10;;;4.60;99.90;;;;;;5054428;28;20425;-57
2020/12/25 09:21:04;;;;;;;1.90;0.90;;;4.50;99.90;;;;;;5054874;28;20718;-57
2020/12/25 09:23:31;;;;;;;2.92;1.20;;;4.60;99.90;;;;;;5054820;28;20425;-56
2020/12/25 09:25:58;;;;;;;2.33;1.10;;;4.60;99.90;;;;;;5051967;28;20661;-55
2020/12/25 09:28:25;;;;;;;2.20;1.02;;;4.60;99.90;;;;;;5053649;28;20419;-54
2020/12/25 09:30:54;;;;;;;2.40;1.10;;;4.70;99.90;;;;;;5054326;28;20868;-54
2020/12/25 09:33:20;;;;;;;2.10;1.10;;;4.70;99.90;;;;;;5053923;28;20425;-57
2020/12/25 09:35:47;;;;;;;1.60;0.90;;;4.80;99.90;;;;;;5054307;28;20869;-57
2020/12/25 09:38:15;;;;;;;2.22;1.10;;;4.90;99.90;;;;;;5054101;28;20421;-56
2020/12/25 09:40:42;;;;;;;2.80;1.10;;;4.80;99.90;;;;;;5054197;28;20437;-55
2020/12/25 09:43:10;;;;;;;3.00;1.30;;;4.60;99.90;;;;;;5054588;28;20725;-52
2020/12/25 09:45:36;;;;;;;2.23;1.00;;;4.30;99.90;;;;;;5054588;28;20429;-55
2020/12/25 09:48:03;;;;;;;2.53;1.00;;;4.10;99.90;;;;;;5053255;28;20527;-58
2020/12/25 09:50:30;;;;;;;2.45;1.10;;;4.40;99.90;;;;;;5053608;28;20421;-56
2020/12/25 09:52:57;;;;;;;2.00;1.00;;;4.50;99.90;;;;;;5054402;28;20425;-56
2020/12/25 09:55:26;;;;;;;1.50;0.90;;;4.60;99.90;;;;;;5054583;28;20828;-54
2020/12/25 09:57:53;;;;;;;2.17;1.00;;;4.60;99.90;;;;;;5054979;28;20427;-56
2020/12/25 10:00:20;;;;;;;2.50;1.00;;;4.70;99.90;;;;;;5054429;28;20777;-57
2020/12/25 10:02:46;;;;;;;1.60;0.90;;;4.60;99.90;;;;;;5053901;28;20470;-54
2020/12/25 10:05:13;;;;;;;2.80;0.90;;;4.60;99.90;;;;;;5054035;28;20837;-57
2020/12/25 10:07:40;;;;;;;1.98;0.90;;;4.80;99.90;;;;;;5054101;28;20457;-56
2020/12/25 10:10:08;;;;;;;1.90;0.90;;;5.00;99.90;;;;;;5053344;28;20425;-56
2020/12/25 10:12:36;;;;;;;1.30;0.80;;;5.10;99.90;;;;;;5053343;28;20420;-56
2020/12/25 10:15:04;;;;;;;1.63;0.80;;;5.10;99.90;;;;;;5053830;28;20432;-57
2020/12/25 10:17:31;;;;;;;1.10;0.70;;;5.10;99.90;;;;;;5051577;28;20471;-55
2020/12/25 10:19:58;;;;;;;1.25;0.80;;;5.10;99.90;;;;;;5053692;28;20495;-57
2020/12/25 10:22:25;;;;;;;1.50;0.70;;;5.20;99.90;;;;;;5052622;28;20421;-56
2020/12/25 10:24:52;;;;;;;1.10;0.70;;;5.20;99.90;;;;;;5053878;28;20436;-56
2020/12/25 10:27:19;;;;;;;1.40;0.80;;;5.30;99.90;;;;;;5051445;28;20429;-57
2020/12/25 10:29:50;;;;;;;1.00;0.60;;;5.40;99.90;;;;;;5052204;28;20425;-56
2020/12/25 10:32:16;;;;;;;1.20;0.68;;;5.50;99.90;;;;;;5051990;28;20417;-56
2020/12/25 10:34:43;;;;;;;1.20;0.60;;;5.50;99.90;;;;;;5053057;28;20425;-56
2020/12/25 10:37:10;;;;;;;1.90;0.80;;;5.20;99.90;;;;;;5053186;28;20435;-55
2020/12/25 10:39:37;;;;;;;1.73;0.80;;;4.90;99.90;;;;;;5054479;28;20464;-57
2020/12/25 10:42:08;;;;;;;1.80;0.80;;;4.80;99.90;;;;;;5054943;28;20698;-56
2020/12/25 10:44:35;;;;;;;1.30;0.80;;;4.90;99.90;;;;;;5055218;28;20475;-55
2020/12/25 10:47:03;;;;;;;1.23;0.70;;;5.10;99.90;;;;;;5054174;28;20433;-57
2020/12/25 10:49:30;;;;;;;3.00;0.80;;;5.00;99.90;;;;;;5053545;28;20565;-56
2020/12/25 10:51:57;;;;;;;1.30;0.80;;;4.90;99.90;;;;;;5052569;28;20452;-56
2020/12/25 10:54:24;;;;;;;3.30;0.83;;;4.90;99.90;;;;;;5055096;28;20421;-57
2020/12/25 10:56:51;;;;;;;1.20;0.70;;;4.90;99.90;;;;;;5055726;28;20460;-57
2020/12/25 10:59:18;;;;;;;1.30;0.70;;;4.90;99.90;;;;;;5056089;28;20429;-56
2020/12/25 11:01:48;;;;;;;1.20;0.70;;;5.00;99.90;;;;;;5055770;28;20476;-57
2020/12/25 11:04:16;;;;;;;2.00;0.70;;;4.80;99.90;;;;;;5055456;28;20417;-51
2020/12/25 11:06:44;;;;;;;1.20;0.70;;;4.90;99.90;;;;;;5056469;28;20429;-56
2020/12/25 11:09:11;;;;;;;1.17;0.70;;;4.80;99.90;;;;;;5056152;28;20409;-55
2020/12/25 11:11:40;;;;;;;1.58;0.70;;;4.90;99.90;;;;;;5055568;28;20433;-57
2020/12/25 11:14:08;;;;;;;1.10;0.60;;;4.90;99.90;;;;;;5056181;28;20492;-55
2020/12/25 11:16:36;;;;;;;1.17;0.80;;;4.80;99.90;;;;;;5056114;28;20481;-55
2020/12/25 11:19:04;;;;;;;1.08;0.70;;;4.90;99.90;;;;;;5056099;28;20483;-56
2020/12/25 11:21:33;;;;;;;1.58;0.60;;;4.90;99.90;;;;;;5056712;28;20651;-55
2020/12/25 11:24:02;;;;;;;1.90;0.70;;;4.80;99.90;;;;;;5055317;28;20448;-56
2020/12/25 11:26:30;;;;;;;0.93;0.57;;;4.70;99.90;;;;;;5055331;28;20429;-54
2020/12/25 11:28:58;;;;;;;1.60;0.70;;;4.80;99.90;;;;;;5055833;28;20725;-55
2020/12/25 11:31:26;;;;;;;1.40;0.70;;;4.80;99.90;;;;;;5055600;28;20833;-56
2020/12/25 11:33:54;;;;;;;1.13;0.80;;;4.80;99.90;;;;;;5055831;28;20421;-54
2020/12/25 11:36:22;;;;;;;1.98;0.70;;;5.00;99.90;;;;;;5055114;28;20472;-55
2020/12/25 11:38:50;;;;;;;1.20;0.60;;;4.80;99.90;;;;;;5054747;28;20425;-53
2020/12/25 11:41:18;;;;;;;0.98;0.63;;;4.80;99.90;;;;;;5054580;28;20433;-52
2020/12/25 11:43:47;;;;;;;1.40;0.60;;;4.80;99.90;;;;;;5054971;28;20841;-52
2020/12/25 11:46:14;;;;;;;1.40;0.60;;;4.80;99.90;;;;;;5054228;28;20431;-54
2020/12/25 11:48:41;;;;;;;1.50;0.80;;;4.70;99.90;;;;;;5053381;28;20916;-56
2020/12/25 11:51:08;;;;;;;1.05;0.60;;;4.80;99.90;;;;;;5054407;28;20429;-54
2020/12/25 11:53:37;;;;;;;1.30;0.60;;;5.00;99.90;;;;;;5054927;28;20421;-56
2020/12/25 11:56:05;;;;;;;1.10;0.60;;;5.00;99.90;;;;;;5054130;28;20437;-55
2020/12/25 11:58:32;;;;;;;1.40;0.70;;;4.90;99.90;;;;;;5054982;28;20421;-51
2020/12/25 12:00:59;;;;;;;0.95;0.60;;;5.00;99.90;;;;;;5055804;28;20444;-54
2020/12/25 12:03:26;;;;;;;1.48;0.70;;;5.00;99.90;;;;;;5055851;28;20490;-54
2020/12/25 12:05:54;;;;;;;1.10;0.55;;;5.10;99.90;;;;;;5056101;28;20452;-55
2020/12/25 12:08:21;;;;;;;2.20;0.70;;;5.00;99.90;;;;;;5055438;28;20825;-55
2020/12/25 12:10:47;;;;;;;0.90;0.50;;;5.00;99.90;;;;;;5055225;28;20421;-55
2020/12/25 12:13:15;;;;;;;0.93;0.60;;;5.10;99.90;;;;;;5055199;28;20421;-55
2020/12/25 12:15:42;;;;;;;1.30;0.60;;;5.10;99.90;;;;;;5054579;28;20486;-56
2020/12/25 12:18:09;;;;;;;1.20;0.63;;;4.90;99.90;;;;;;5055870;28;20852;-55
2020/12/25 12:20:37;;;;;;;1.15;0.52;;;4.90;99.90;;;;;;5055535;28;20444;-57
2020/12/25 12:23:04;;;;;;;0.95;0.60;;;4.80;99.90;;;;;;5055659;28;20430;-55
2020/12/25 12:25:31;;;;;;;1.08;0.65;;;4.60;99.90;;;;;;5055618;28;20421;-54
2020/12/25 12:27:58;;;;;;;2.20;0.60;;;4.70;99.90;;;;;;5054081;28;20418;-52
2020/12/25 12:30:26;;;;;;;1.10;0.50;;;4.70;99.90;;;;;;5054230;28;20429;-52
2020/12/25 12:32:52;;;;;;;0.85;0.50;;;4.70;99.90;;;;;;5054842;28;20417;-55
2020/12/25 12:35:19;;;;;;;1.00;0.50;;;4.80;99.90;;;;;;5054460;28;20849;-55
2020/12/25 12:37:47;;;;;;;1.00;0.68;;;4.90;99.90;;;;;;5053621;28;20417;-54
2020/12/25 12:40:14;;;;;;;1.80;0.60;;;4.80;99.90;;;;;;5054068;28;20488;-50
2020/12/25 12:42:41;;;;;;;0.80;0.50;;;4.90;99.90;;;;;;5054492;28;20452;-53
2020/12/25 12:45:09;;;;;;;1.02;0.60;;;5.00;99.90;;;;;;5054290;28;20428;-53
2020/12/25 12:47:37;;;;;;;0.90;0.50;;;4.90;99.90;;;;;;5054535;28;20426;-53
2020/12/25 12:50:04;;;;;;;0.80;0.50;;;4.80;99.90;;;;;;5053395;28;20466;-55
2020/12/25 12:52:31;;;;;;;1.00;0.50;;;4.80;99.90;;;;;;5053272;28;20601;-54
2020/12/25 12:54:58;;;;;;;1.40;0.50;;;4.90;99.90;;;;;;5053092;28;20424;-56
2020/12/25 12:57:26;;;;;;;1.02;0.60;;;4.80;99.90;;;;;;5052840;28;20755;-53
2020/12/25 12:59:53;;;;;;;0.90;0.60;;;4.80;99.90;;;;;;5052672;28;20437;-51
2020/12/25 13:02:20;;;;;;;1.00;0.60;;;4.80;99.90;;;;;;5054174;28;20421;-53